createdAt,value
2018-07-14T00:00:02.160Z,6.3
2018-07-14T00:00:18.588Z,6.6
2018-07-14T00:00:35.010Z,6.3
2018-07-14T00:00:51.434Z,6.1
2018-07-14T00:01:07.861Z,6.1
2018-07-14T00:01:24.287Z,6
2018-07-14T00:01:40.710Z,6.2
2018-07-14T00:01:57.136Z,6.2
2018-07-14T00:02:13.562Z,6
2018-07-14T00:02:30.978Z,6.1
2018-07-14T00:02:47.406Z,6
2018-07-14T00:03:03.869Z,5.9
2018-07-14T00:03:20.296Z,6.1
2018-07-14T00:03:36.720Z,6.3
2018-07-14T00:03:53.144Z,6.4
2018-07-14T00:04:09.570Z,6.3
2018-07-14T00:04:26.000Z,6.3
2018-07-14T00:04:42.427Z,6.2
2018-07-14T00:04:58.852Z,6.1
2018-07-14T00:05:15.275Z,6.5
2018-07-14T00:05:31.701Z,6.4
2018-07-14T00:05:48.127Z,6
2018-07-14T00:06:04.552Z,6.4
2018-07-14T00:06:20.978Z,6.7
2018-07-14T00:06:37.403Z,6.5
2018-07-14T00:06:53.830Z,6.4
2018-07-14T00:07:10.253Z,6
2018-07-14T00:07:26.681Z,6.2
2018-07-14T00:07:43.107Z,6.4
2018-07-14T00:07:59.535Z,6.2
2018-07-14T00:08:15.997Z,6.3
2018-07-14T00:08:32.421Z,6.1
2018-07-14T00:08:48.847Z,6.1
2018-07-14T00:09:05.275Z,6.4
2018-07-14T00:09:21.704Z,6.5
2018-07-14T00:09:38.129Z,6.5
2018-07-14T00:09:54.573Z,6.2
2018-07-14T00:10:10.972Z,6
2018-07-14T00:10:27.394Z,6
2018-07-14T00:10:43.820Z,6
2018-07-14T00:11:00.265Z,6
2018-07-14T00:11:16.692Z,6
2018-07-14T00:11:33.118Z,5.9
2018-07-14T00:11:49.547Z,6.2
2018-07-14T00:12:05.969Z,6.4
2018-07-14T00:12:22.392Z,6.5
2018-07-14T00:12:38.828Z,6.4
2018-07-14T00:12:55.251Z,6.1
2018-07-14T00:13:11.689Z,6.1
2018-07-14T00:13:28.114Z,6
2018-07-14T00:13:45.529Z,6
2018-07-14T00:14:01.954Z,6.4
2018-07-14T00:14:18.378Z,6.3
2018-07-14T00:14:34.802Z,6.2
2018-07-14T00:14:51.230Z,6.3
2018-07-14T00:15:07.654Z,6.2
2018-07-14T00:15:24.079Z,6.1
2018-07-14T00:15:40.510Z,6.1
2018-07-14T00:15:56.933Z,6.3
2018-07-14T00:16:13.357Z,6.1
2018-07-14T00:16:29.783Z,6.1
2018-07-14T00:16:46.208Z,6.1
2018-07-14T00:17:02.635Z,6
2018-07-14T00:17:19.061Z,6.2
2018-07-14T00:17:35.487Z,6.2
2018-07-14T00:17:51.912Z,6
2018-07-14T00:18:08.328Z,5.9
2018-07-14T00:18:24.784Z,6.2
2018-07-14T00:18:41.210Z,6.3
2018-07-14T00:18:57.634Z,5.9
2018-07-14T00:19:14.062Z,6.3
2018-07-14T00:19:30.485Z,6.4
2018-07-14T00:19:47.904Z,6.2
2018-07-14T00:20:04.324Z,6.3
2018-07-14T00:20:20.757Z,6.3
2018-07-14T00:20:38.176Z,6.4
2018-07-14T00:20:54.597Z,6.6
2018-07-14T00:21:11.022Z,6.5
2018-07-14T00:21:27.452Z,6.4
2018-07-14T00:21:43.874Z,6.5
2018-07-14T00:22:00.302Z,6.6
2018-07-14T00:22:16.728Z,6.6
2018-07-14T00:22:33.157Z,6.4
2018-07-14T00:22:49.582Z,6.2
2018-07-14T00:23:06.008Z,6.7
2018-07-14T00:23:22.448Z,6.5
2018-07-14T00:23:38.871Z,6.3
2018-07-14T00:23:55.299Z,6.3
2018-07-14T00:24:11.723Z,6.2
2018-07-14T00:24:28.190Z,6.2
2018-07-14T00:24:44.572Z,6.5
2018-07-14T00:25:01.077Z,6.3
2018-07-14T00:25:17.478Z,6.4
2018-07-14T00:25:33.904Z,6.3
2018-07-14T00:25:50.330Z,6.1
2018-07-14T00:26:06.754Z,6.4
2018-07-14T00:26:23.179Z,6.2
2018-07-14T00:26:39.606Z,6.1
2018-07-14T00:26:56.035Z,5.7
2018-07-14T00:27:12.458Z,6
2018-07-14T00:27:28.885Z,6.6
2018-07-14T00:27:45.310Z,6.4
2018-07-14T00:28:01.736Z,6.4
2018-07-14T00:28:18.164Z,6.3
2018-07-14T00:28:35.625Z,6.2
2018-07-14T00:28:52.054Z,6.2
2018-07-14T00:29:08.479Z,6
2018-07-14T00:29:24.901Z,6.2
2018-07-14T00:29:41.329Z,6.3
2018-07-14T00:29:57.753Z,6.4
2018-07-14T00:30:14.179Z,6.1
2018-07-14T00:30:30.603Z,6
2018-07-14T00:30:47.026Z,6.4
2018-07-14T00:31:03.450Z,6.5
2018-07-14T00:31:19.876Z,6.1
2018-07-14T00:31:36.290Z,6
2018-07-14T00:31:52.721Z,6.2
2018-07-14T00:32:09.145Z,6.3
2018-07-14T00:32:25.579Z,6.2
2018-07-14T00:32:42.001Z,6.2
2018-07-14T00:32:58.425Z,6.2
2018-07-14T00:33:14.853Z,6.2
2018-07-14T00:33:31.292Z,6.2
2018-07-14T00:33:48.711Z,5.9
2018-07-14T00:34:05.135Z,5.9
2018-07-14T00:34:21.560Z,6
2018-07-14T00:34:37.993Z,6.1
2018-07-14T00:34:54.419Z,6.1
2018-07-14T00:35:10.843Z,6.1
2018-07-14T00:35:27.269Z,5.9
2018-07-14T00:35:43.695Z,5.7
2018-07-14T00:36:00.123Z,5.8
2018-07-14T00:36:16.571Z,6.1
2018-07-14T00:36:32.996Z,6.2
2018-07-14T00:36:49.421Z,6.2
2018-07-14T00:37:05.845Z,6.2
2018-07-14T00:37:22.270Z,5.9
2018-07-14T00:37:38.695Z,5.6
2018-07-14T00:37:55.130Z,5.8
2018-07-14T00:38:11.558Z,6.2
2018-07-14T00:38:27.999Z,5.9
2018-07-14T00:38:44.428Z,6
2018-07-14T00:39:00.854Z,6.2
2018-07-14T00:39:17.284Z,6.5
2018-07-14T00:39:34.692Z,6.1
2018-07-14T00:39:51.125Z,5.7
2018-07-14T00:40:07.552Z,5.6
2018-07-14T00:40:23.980Z,5.8
2018-07-14T00:40:40.425Z,5.6
2018-07-14T00:40:56.853Z,5.7
2018-07-14T00:41:13.278Z,5.8
2018-07-14T00:41:29.707Z,5.8
2018-07-14T00:41:46.146Z,6.1
2018-07-14T00:42:02.573Z,6.2
2018-07-14T00:42:19.000Z,5.8
2018-07-14T00:42:35.422Z,5.8
2018-07-14T00:42:51.848Z,5.9
2018-07-14T00:43:08.272Z,6.1
2018-07-14T00:43:24.700Z,6.3
2018-07-14T00:43:41.139Z,6.2
2018-07-14T00:43:57.568Z,6.2
2018-07-14T00:44:13.994Z,6.1
2018-07-14T00:44:30.418Z,6.1
2018-07-14T00:44:46.844Z,6
2018-07-14T00:45:03.274Z,6.1
2018-07-14T00:45:19.700Z,6.2
2018-07-14T00:45:36.125Z,6.3
2018-07-14T00:45:52.553Z,6.1
2018-07-14T00:46:08.978Z,5.9
2018-07-14T00:46:25.419Z,6
2018-07-14T00:46:41.850Z,6
2018-07-14T00:46:58.272Z,5.9
2018-07-14T00:47:14.698Z,6.2
2018-07-14T00:47:31.126Z,6
2018-07-14T00:47:47.553Z,6
2018-07-14T00:48:03.978Z,5.9
2018-07-14T00:48:20.402Z,5.6
2018-07-14T00:48:36.848Z,5.7
2018-07-14T00:48:53.272Z,5.9
2018-07-14T00:49:09.698Z,6.1
2018-07-14T00:49:26.123Z,6
2018-07-14T00:49:42.552Z,6.2
2018-07-14T00:49:58.972Z,5.9
2018-07-14T00:50:15.399Z,5.6
2018-07-14T00:50:31.826Z,5.6
2018-07-14T00:50:48.250Z,5.8
2018-07-14T00:51:04.675Z,6
2018-07-14T00:51:21.100Z,6
2018-07-14T00:51:37.526Z,6
2018-07-14T00:51:53.951Z,5.8
2018-07-14T00:52:10.379Z,6
2018-07-14T00:52:26.802Z,5.8
2018-07-14T00:52:43.227Z,5.5
2018-07-14T00:52:59.652Z,5.4
2018-07-14T00:53:16.077Z,5.7
2018-07-14T00:53:32.502Z,5.9
2018-07-14T00:53:48.967Z,5.9
2018-07-14T00:54:05.388Z,5.9
2018-07-14T00:54:21.814Z,6
2018-07-14T00:54:38.239Z,5.9
2018-07-14T00:54:54.663Z,5.6
2018-07-14T00:55:11.088Z,5.6
2018-07-14T00:55:27.512Z,5.5
2018-07-14T00:55:43.939Z,5.6
2018-07-14T00:56:00.365Z,5.9
2018-07-14T00:56:16.791Z,5.5
2018-07-14T00:56:33.220Z,5.5
2018-07-14T00:56:49.642Z,5.8
2018-07-14T00:57:06.066Z,5.7
2018-07-14T00:57:22.489Z,5.7
2018-07-14T00:57:38.915Z,5.7
2018-07-14T00:57:55.342Z,5.7
2018-07-14T00:58:11.769Z,5.7
2018-07-14T00:58:28.194Z,5.6
2018-07-14T00:58:44.638Z,5.5
2018-07-14T00:59:01.067Z,5.3
2018-07-14T00:59:17.518Z,5.5
2018-07-14T00:59:33.936Z,5.8
2018-07-14T00:59:50.360Z,6
2018-07-14T01:00:06.787Z,6.1
2018-07-14T01:00:23.211Z,5.7
2018-07-14T01:00:39.630Z,5.7
2018-07-14T01:00:56.058Z,5.7
2018-07-14T01:01:12.482Z,5.6
2018-07-14T01:01:28.908Z,5.9
2018-07-14T01:01:45.336Z,6.1
2018-07-14T01:02:01.809Z,6
2018-07-14T01:02:18.187Z,5.7
2018-07-14T01:02:34.616Z,5.5
2018-07-14T01:02:51.040Z,5.6
2018-07-14T01:03:07.521Z,5.8
2018-07-14T01:03:23.894Z,5.8
2018-07-14T01:03:40.317Z,5.6
2018-07-14T01:03:56.760Z,5.4
2018-07-14T01:04:13.187Z,5.8
2018-07-14T01:04:29.611Z,6.2
2018-07-14T01:04:46.037Z,5.9
2018-07-14T01:05:02.462Z,5.8
2018-07-14T01:05:18.902Z,6.2
2018-07-14T01:05:35.343Z,5.9
2018-07-14T01:05:51.755Z,6.1
2018-07-14T01:06:08.183Z,6.2
2018-07-14T01:06:25.601Z,6.1
2018-07-14T01:06:42.029Z,6
2018-07-14T01:06:58.459Z,5.8
2018-07-14T01:07:14.883Z,5.8
2018-07-14T01:07:31.312Z,5.9
2018-07-14T01:07:47.738Z,5.9
2018-07-14T01:08:04.163Z,6
2018-07-14T01:08:20.588Z,6.2
2018-07-14T01:08:37.013Z,6.1
2018-07-14T01:08:53.459Z,6.1
2018-07-14T01:09:09.884Z,6.4
2018-07-14T01:09:26.314Z,6.2
2018-07-14T01:09:42.740Z,5.9
2018-07-14T01:09:59.167Z,6
2018-07-14T01:10:15.592Z,5.9
2018-07-14T01:10:32.016Z,5.9
2018-07-14T01:10:48.438Z,6.2
2018-07-14T01:11:05.866Z,6.1
2018-07-14T01:11:22.294Z,6
2018-07-14T01:11:38.721Z,5.9
2018-07-14T01:11:55.144Z,5.6
2018-07-14T01:12:11.578Z,6
2018-07-14T01:12:28.006Z,6.1
2018-07-14T01:12:44.430Z,5.9
2018-07-14T01:13:00.868Z,5.8
2018-07-14T01:13:17.295Z,5.9
2018-07-14T01:13:33.721Z,6
2018-07-14T01:13:50.143Z,6.2
2018-07-14T01:14:07.582Z,6.2
2018-07-14T01:14:24.007Z,6.1
2018-07-14T01:14:40.450Z,6.2
2018-07-14T01:14:56.878Z,6.4
2018-07-14T01:15:13.302Z,6.7
2018-07-14T01:15:29.736Z,6.5
2018-07-14T01:15:46.163Z,6.1
2018-07-14T01:16:02.589Z,6.4
2018-07-14T01:16:19.016Z,6.4
2018-07-14T01:16:35.437Z,6.3
2018-07-14T01:16:51.863Z,6.6
2018-07-14T01:17:08.289Z,6.7
2018-07-14T01:17:24.713Z,6.5
2018-07-14T01:17:41.192Z,6.5
2018-07-14T01:17:57.568Z,6.6
2018-07-14T01:18:13.993Z,6.8
2018-07-14T01:18:30.418Z,6.4
2018-07-14T01:18:46.839Z,6.1
2018-07-14T01:19:03.291Z,6.6
2018-07-14T01:19:19.720Z,6.7
2018-07-14T01:19:36.146Z,6.1
2018-07-14T01:19:52.570Z,6.2
2018-07-14T01:20:08.999Z,6.5
2018-07-14T01:20:25.422Z,6.2
2018-07-14T01:20:41.848Z,6.3
2018-07-14T01:20:58.274Z,6.1
2018-07-14T01:21:15.692Z,6.4
2018-07-14T01:21:32.121Z,6.3
2018-07-14T01:21:48.543Z,6.1
2018-07-14T01:22:04.969Z,6.1
2018-07-14T01:22:21.395Z,6.1
2018-07-14T01:22:37.833Z,6.1
2018-07-14T01:22:54.254Z,6.1
2018-07-14T01:23:10.681Z,5.9
2018-07-14T01:23:27.105Z,6.2
2018-07-14T01:23:43.530Z,6
2018-07-14T01:23:59.992Z,5.9
2018-07-14T01:24:16.417Z,5.9
2018-07-14T01:24:32.840Z,6
2018-07-14T01:24:49.266Z,6.1
2018-07-14T01:25:06.684Z,5.9
2018-07-14T01:25:23.107Z,6
2018-07-14T01:25:39.533Z,6.3
2018-07-14T01:25:55.962Z,6.2
2018-07-14T01:26:12.389Z,6.3
2018-07-14T01:26:28.813Z,6.1
2018-07-14T01:26:45.238Z,6.2
2018-07-14T01:27:01.664Z,6.3
2018-07-14T01:27:18.088Z,6.1
2018-07-14T01:27:34.511Z,6
2018-07-14T01:27:50.926Z,6.1
2018-07-14T01:28:07.350Z,6.2
2018-07-14T01:28:23.775Z,6.2
2018-07-14T01:28:40.202Z,6.1
2018-07-14T01:28:56.626Z,6.3
2018-07-14T01:29:13.069Z,6.3
2018-07-14T01:29:29.492Z,6
2018-07-14T01:29:45.920Z,6
2018-07-14T01:30:02.345Z,6
2018-07-14T01:30:18.770Z,5.6
2018-07-14T01:30:35.193Z,5.9
2018-07-14T01:30:51.619Z,6.2
2018-07-14T01:31:08.046Z,6.3
2018-07-14T01:31:24.472Z,6.4
2018-07-14T01:31:40.895Z,6.3
2018-07-14T01:31:57.321Z,6.2
2018-07-14T01:32:13.745Z,5.9
2018-07-14T01:32:30.170Z,5.9
2018-07-14T01:32:46.605Z,6.2
2018-07-14T01:33:03.030Z,6.2
2018-07-14T01:33:19.456Z,5.9
2018-07-14T01:33:35.880Z,5.9
2018-07-14T01:33:52.308Z,5.8
2018-07-14T01:34:08.750Z,6.1
2018-07-14T01:34:25.176Z,6
2018-07-14T01:34:41.598Z,6.2
2018-07-14T01:34:58.023Z,6.2
2018-07-14T01:35:14.449Z,6.1
2018-07-14T01:35:30.877Z,6.1
2018-07-14T01:35:47.302Z,6
2018-07-14T01:36:03.733Z,5.9
2018-07-14T01:36:20.156Z,6
2018-07-14T01:36:36.580Z,5.8
2018-07-14T01:36:53.006Z,5.7
2018-07-14T01:37:09.431Z,5.8
2018-07-14T01:37:25.857Z,5.7
2018-07-14T01:37:42.281Z,6
2018-07-14T01:37:58.707Z,5.9
2018-07-14T01:38:15.135Z,6
2018-07-14T01:38:31.562Z,6.3
2018-07-14T01:38:47.988Z,6.2
2018-07-14T01:39:04.413Z,6
2018-07-14T01:39:20.883Z,5.9
2018-07-14T01:39:37.309Z,5.7
2018-07-14T01:39:53.735Z,5.7
2018-07-14T01:40:10.160Z,5.9
2018-07-14T01:40:26.586Z,5.9
2018-07-14T01:40:43.117Z,6.2
2018-07-14T01:40:59.435Z,5.9
2018-07-14T01:41:15.859Z,5.6
2018-07-14T01:41:32.287Z,6
2018-07-14T01:41:48.715Z,6.3
2018-07-14T01:42:05.140Z,6
2018-07-14T01:42:21.565Z,6.3
2018-07-14T01:42:37.991Z,6.2
2018-07-14T01:42:54.417Z,6
2018-07-14T01:43:10.843Z,6.1
2018-07-14T01:43:27.267Z,6.1
2018-07-14T01:43:43.693Z,6
2018-07-14T01:44:00.120Z,6
2018-07-14T01:44:16.562Z,6.3
2018-07-14T01:44:32.992Z,6.1
2018-07-14T01:44:49.414Z,5.8
2018-07-14T01:45:05.838Z,5.7
2018-07-14T01:45:22.276Z,5.8
2018-07-14T01:45:38.702Z,5.9
2018-07-14T01:45:55.133Z,5.8
2018-07-14T01:46:11.553Z,6
2018-07-14T01:46:27.978Z,6.1
2018-07-14T01:46:44.405Z,6
2018-07-14T01:47:00.832Z,5.9
2018-07-14T01:47:17.258Z,6.1
2018-07-14T01:47:33.674Z,6.2
2018-07-14T01:47:50.098Z,5.9
2018-07-14T01:48:07.512Z,5.9
2018-07-14T01:48:23.948Z,5.9
2018-07-14T01:48:40.373Z,6
2018-07-14T01:48:57.790Z,5.8
2018-07-14T01:49:14.251Z,5.9
2018-07-14T01:49:30.676Z,5.8
2018-07-14T01:49:47.096Z,5.6
2018-07-14T01:50:03.524Z,5.6
2018-07-14T01:50:19.945Z,5.8
2018-07-14T01:50:36.369Z,6.2
2018-07-14T01:50:52.804Z,5.9
2018-07-14T01:51:09.230Z,5.8
2018-07-14T01:51:25.656Z,5.8
2018-07-14T01:51:42.078Z,5.8
2018-07-14T01:51:58.510Z,6
2018-07-14T01:52:14.949Z,6
2018-07-14T01:52:31.371Z,6.1
2018-07-14T01:52:47.797Z,6.3
2018-07-14T01:53:04.221Z,6
2018-07-14T01:53:20.698Z,5.9
2018-07-14T01:53:37.079Z,5.7
2018-07-14T01:53:53.507Z,5.8
2018-07-14T01:54:09.932Z,5.7
2018-07-14T01:54:26.372Z,5.8
2018-07-14T01:54:42.793Z,6
2018-07-14T01:54:59.223Z,6.1
2018-07-14T01:55:15.644Z,5.8
2018-07-14T01:55:32.069Z,5.8
2018-07-14T01:55:49.486Z,5.8
2018-07-14T01:56:05.911Z,5.6
2018-07-14T01:56:22.339Z,5.7
2018-07-14T01:56:38.766Z,5.7
2018-07-14T01:56:55.196Z,5.7
2018-07-14T01:57:11.619Z,5.8
2018-07-14T01:57:28.057Z,5.8
2018-07-14T01:57:44.480Z,6
2018-07-14T01:58:00.905Z,6.1
2018-07-14T01:58:17.331Z,6.3
2018-07-14T01:58:33.757Z,6.2
2018-07-14T01:58:50.187Z,6
2018-07-14T01:59:06.613Z,5.9
2018-07-14T01:59:23.040Z,5.9
2018-07-14T01:59:39.481Z,6.1
2018-07-14T01:59:55.907Z,6.1
2018-07-14T02:00:12.333Z,6
2018-07-14T02:00:28.762Z,5.8
2018-07-14T02:00:45.187Z,5.9
2018-07-14T02:01:01.613Z,5.8
2018-07-14T02:01:18.038Z,5.6
2018-07-14T02:01:34.465Z,5.8
2018-07-14T02:01:50.903Z,6
2018-07-14T02:02:07.329Z,6
2018-07-14T02:02:23.753Z,6.1
2018-07-14T02:02:40.182Z,6
2018-07-14T02:02:56.611Z,5.9
2018-07-14T02:03:13.032Z,6
2018-07-14T02:03:29.458Z,6.2
2018-07-14T02:03:45.883Z,6.2
2018-07-14T02:04:02.313Z,6.1
2018-07-14T02:04:18.734Z,6.1
2018-07-14T02:04:35.180Z,6.1
2018-07-14T02:04:51.604Z,5.7
2018-07-14T02:05:08.027Z,5.6
2018-07-14T02:05:24.454Z,6
2018-07-14T02:05:40.878Z,5.6
2018-07-14T02:05:57.307Z,5.7
2018-07-14T02:06:13.728Z,6
2018-07-14T02:06:30.154Z,5.7
2018-07-14T02:06:46.580Z,5.9
2018-07-14T02:07:03.005Z,6.1
2018-07-14T02:07:19.430Z,5.9
2018-07-14T02:07:35.853Z,5.6
2018-07-14T02:07:52.279Z,5.8
2018-07-14T02:08:08.705Z,5.9
2018-07-14T02:08:25.130Z,5.9
2018-07-14T02:08:41.558Z,6
2018-07-14T02:08:57.987Z,6.2
2018-07-14T02:09:14.407Z,6.3
2018-07-14T02:09:30.829Z,6.5
2018-07-14T02:09:47.278Z,6.4
2018-07-14T02:10:03.695Z,6.2
2018-07-14T02:10:20.119Z,6.3
2018-07-14T02:10:36.545Z,6.4
2018-07-14T02:10:52.969Z,6.1
2018-07-14T02:11:09.395Z,6.2
2018-07-14T02:11:25.821Z,6.4
2018-07-14T02:11:42.247Z,6
2018-07-14T02:11:58.677Z,6.2
2018-07-14T02:12:15.105Z,6.3
2018-07-14T02:12:31.527Z,6.1
2018-07-14T02:12:47.953Z,6.2
2018-07-14T02:13:04.378Z,6.3
2018-07-14T02:13:20.803Z,6.7
2018-07-14T02:13:37.227Z,6.6
2018-07-14T02:13:53.653Z,6.2
2018-07-14T02:14:10.078Z,6.3
2018-07-14T02:14:26.505Z,6.1
2018-07-14T02:14:42.964Z,6.2
2018-07-14T02:14:59.390Z,6.3
2018-07-14T02:15:15.815Z,6.3
2018-07-14T02:15:32.240Z,6.3
2018-07-14T02:15:48.664Z,6.5
2018-07-14T02:16:05.090Z,6.4
2018-07-14T02:16:21.512Z,6.6
2018-07-14T02:16:37.938Z,6.3
2018-07-14T02:16:54.386Z,6
2018-07-14T02:17:10.815Z,6.5
2018-07-14T02:17:27.239Z,6.8
2018-07-14T02:17:43.664Z,6.6
2018-07-14T02:18:00.090Z,6.5
2018-07-14T02:18:16.517Z,6
2018-07-14T02:18:32.951Z,5.9
2018-07-14T02:18:49.377Z,6.1
2018-07-14T02:19:05.801Z,6.2
2018-07-14T02:19:22.226Z,6.3
2018-07-14T02:19:38.651Z,6.3
2018-07-14T02:19:55.112Z,6.2
2018-07-14T02:20:11.538Z,6.1
2018-07-14T02:20:27.962Z,6.2
2018-07-14T02:20:44.388Z,6.2
2018-07-14T02:21:00.814Z,6.5
2018-07-14T02:21:17.237Z,6.5
2018-07-14T02:21:33.663Z,6.4
2018-07-14T02:21:50.083Z,6.5
2018-07-14T02:22:06.509Z,6.6
2018-07-14T02:22:22.939Z,6.8
2018-07-14T02:22:39.368Z,7
2018-07-14T02:22:55.793Z,6.9
2018-07-14T02:23:12.219Z,6.6
2018-07-14T02:23:28.644Z,6.6
2018-07-14T02:23:45.066Z,6.9
2018-07-14T02:24:01.492Z,7.1
2018-07-14T02:24:17.914Z,7.1
2018-07-14T02:24:34.339Z,7.2
2018-07-14T02:24:50.778Z,6.9
2018-07-14T02:25:07.205Z,7.1
2018-07-14T02:25:23.629Z,7.1
2018-07-14T02:25:40.052Z,7.1
2018-07-14T02:25:56.475Z,6.9
2018-07-14T02:26:12.902Z,7
2018-07-14T02:26:29.326Z,6.9
2018-07-14T02:26:45.751Z,6.9
2018-07-14T02:27:02.182Z,7.2
2018-07-14T02:27:18.607Z,7.1
2018-07-14T02:27:35.030Z,6.8
2018-07-14T02:27:51.456Z,6.7
2018-07-14T02:28:07.885Z,6.8
2018-07-14T02:28:24.312Z,6.9
2018-07-14T02:28:40.736Z,7
2018-07-14T02:28:57.158Z,6.7
2018-07-14T02:29:13.578Z,6.6
2018-07-14T02:29:30.012Z,6.9
2018-07-14T02:29:46.457Z,6.9
2018-07-14T02:30:02.885Z,7.1
2018-07-14T02:30:19.307Z,7.2
2018-07-14T02:30:35.730Z,7.3
2018-07-14T02:30:52.154Z,6.9
2018-07-14T02:31:08.580Z,6.6
2018-07-14T02:31:25.041Z,6.9
2018-07-14T02:31:41.468Z,7.2
2018-07-14T02:31:57.899Z,7.2
2018-07-14T02:32:14.320Z,7
2018-07-14T02:32:30.742Z,6.9
2018-07-14T02:32:47.175Z,6.9
2018-07-14T02:33:03.597Z,6.5
2018-07-14T02:33:20.023Z,6.6
2018-07-14T02:33:36.451Z,6.9
2018-07-14T02:33:52.876Z,6.9
2018-07-14T02:34:09.304Z,6.8
2018-07-14T02:34:26.710Z,6.7
2018-07-14T02:34:43.134Z,6.8
2018-07-14T02:34:59.593Z,6.7
2018-07-14T02:35:16.021Z,6.5
2018-07-14T02:35:32.448Z,6.8
2018-07-14T02:35:48.861Z,6.7
2018-07-14T02:36:05.289Z,6.7
2018-07-14T02:36:21.714Z,6.5
2018-07-14T02:36:38.140Z,6.4
2018-07-14T02:36:54.565Z,6.8
2018-07-14T02:37:10.991Z,6.9
2018-07-14T02:37:27.418Z,7
2018-07-14T02:37:43.844Z,6.6
2018-07-14T02:38:00.282Z,6.2
2018-07-14T02:38:16.711Z,6.6
2018-07-14T02:38:33.136Z,6.9
2018-07-14T02:38:49.564Z,6.7
2018-07-14T02:39:05.988Z,6.6
2018-07-14T02:39:22.414Z,6.6
2018-07-14T02:39:38.865Z,6.5
2018-07-14T02:39:55.290Z,6.5
2018-07-14T02:40:11.716Z,6.4
2018-07-14T02:40:28.152Z,6.2
2018-07-14T02:40:44.568Z,6.3
2018-07-14T02:41:00.994Z,6.7
2018-07-14T02:41:17.427Z,6.7
2018-07-14T02:41:33.857Z,6.6
2018-07-14T02:41:50.281Z,6.5
2018-07-14T02:42:06.707Z,6.7
2018-07-14T02:42:23.129Z,6.6
2018-07-14T02:42:39.571Z,6.4
2018-07-14T02:42:56.008Z,6.7
2018-07-14T02:43:12.432Z,6.6
2018-07-14T02:43:28.864Z,6.5
2018-07-14T02:43:45.280Z,6.6
2018-07-14T02:44:01.708Z,6.8
2018-07-14T02:44:18.133Z,6.9
2018-07-14T02:44:34.557Z,6.6
2018-07-14T02:44:50.985Z,6.5
2018-07-14T02:45:07.430Z,6.7
2018-07-14T02:45:23.853Z,6.5
2018-07-14T02:45:40.281Z,6.6
2018-07-14T02:45:56.711Z,6.4
2018-07-14T02:46:13.141Z,6.4
2018-07-14T02:46:29.567Z,6.5
2018-07-14T02:46:45.993Z,6.6
2018-07-14T02:47:02.417Z,6.6
2018-07-14T02:47:18.844Z,6.9
2018-07-14T02:47:35.268Z,6.9
2018-07-14T02:47:51.693Z,6.6
2018-07-14T02:48:08.122Z,6.6
2018-07-14T02:48:24.544Z,6.7
2018-07-14T02:48:40.971Z,6.7
2018-07-14T02:48:57.396Z,6.6
2018-07-14T02:49:13.823Z,6.7
2018-07-14T02:49:30.248Z,7
2018-07-14T02:49:46.672Z,7
2018-07-14T02:50:03.134Z,6.6
2018-07-14T02:50:19.563Z,6.6
2018-07-14T02:50:35.984Z,6.5
2018-07-14T02:50:52.409Z,6.6
2018-07-14T02:51:08.826Z,6.6
2018-07-14T02:51:25.250Z,6.6
2018-07-14T02:51:41.676Z,6.5
2018-07-14T02:51:58.103Z,6.5
2018-07-14T02:52:14.527Z,6.5
2018-07-14T02:52:30.953Z,6.6
2018-07-14T02:52:47.380Z,6.8
2018-07-14T02:53:03.804Z,6.8
2018-07-14T02:53:20.230Z,6.6
2018-07-14T02:53:36.658Z,6.4
2018-07-14T02:53:53.082Z,6.3
2018-07-14T02:54:09.509Z,6.4
2018-07-14T02:54:25.936Z,6.5
2018-07-14T02:54:42.349Z,6.5
2018-07-14T02:54:58.775Z,6.3
2018-07-14T02:55:15.220Z,6.4
2018-07-14T02:55:31.644Z,6.6
2018-07-14T02:55:48.072Z,6.5
2018-07-14T02:56:04.504Z,6.2
2018-07-14T02:56:20.921Z,6.6
2018-07-14T02:56:37.347Z,6.4
2018-07-14T02:56:54.771Z,6.4
2018-07-14T02:57:11.191Z,6.6
2018-07-14T02:57:27.616Z,6.5
2018-07-14T02:57:44.056Z,6.4
2018-07-14T02:58:00.479Z,6.5
2018-07-14T02:58:16.907Z,6.2
2018-07-14T02:58:33.334Z,6.3
2018-07-14T02:58:49.760Z,6.5
2018-07-14T02:59:06.190Z,6.3
2018-07-14T02:59:22.609Z,6.5
2018-07-14T02:59:39.084Z,6.3
2018-07-14T02:59:55.536Z,6.3
2018-07-14T03:00:11.918Z,6.3
2018-07-14T03:00:28.343Z,6.3
2018-07-14T03:00:44.773Z,6.5
2018-07-14T03:01:01.198Z,6.2
2018-07-14T03:01:17.625Z,6.2
2018-07-14T03:01:34.049Z,6.5
2018-07-14T03:01:50.475Z,6.6
2018-07-14T03:02:06.901Z,6.3
2018-07-14T03:02:23.323Z,6.3
2018-07-14T03:02:39.759Z,6.5
2018-07-14T03:02:56.184Z,6.2
2018-07-14T03:03:12.611Z,6.4
2018-07-14T03:03:29.046Z,6.6
2018-07-14T03:03:45.472Z,6.4
2018-07-14T03:04:01.894Z,6.2
2018-07-14T03:04:18.323Z,6.5
2018-07-14T03:04:34.746Z,6.5
2018-07-14T03:04:51.171Z,6.1
2018-07-14T03:05:07.599Z,5.8
2018-07-14T03:05:24.039Z,6.1
2018-07-14T03:05:40.465Z,6.2
2018-07-14T03:05:56.887Z,6.1
2018-07-14T03:06:13.312Z,6.4
2018-07-14T03:06:29.738Z,6.6
2018-07-14T03:06:46.165Z,6.5
2018-07-14T03:07:02.590Z,6.5
2018-07-14T03:07:19.015Z,6.4
2018-07-14T03:07:35.437Z,6.2
2018-07-14T03:07:51.850Z,6.3
2018-07-14T03:08:08.275Z,6.3
2018-07-14T03:08:24.711Z,6
2018-07-14T03:08:41.134Z,6
2018-07-14T03:08:57.566Z,6
2018-07-14T03:09:13.990Z,6
2018-07-14T03:09:30.413Z,6.3
2018-07-14T03:09:46.839Z,6.4
2018-07-14T03:10:03.268Z,6.2
2018-07-14T03:10:19.710Z,6.1
2018-07-14T03:10:36.138Z,6.1
2018-07-14T03:10:52.565Z,6.2
2018-07-14T03:11:08.991Z,6.3
2018-07-14T03:11:25.416Z,6.2
2018-07-14T03:11:41.841Z,6.2
2018-07-14T03:11:58.268Z,6.1
2018-07-14T03:12:14.693Z,6.1
2018-07-14T03:12:31.157Z,6.4
2018-07-14T03:12:47.615Z,6.5
2018-07-14T03:13:04.045Z,6.3
2018-07-14T03:13:20.457Z,6.3
2018-07-14T03:13:36.881Z,6.4
2018-07-14T03:13:53.312Z,6.6
2018-07-14T03:14:09.734Z,6.6
2018-07-14T03:14:26.159Z,6.5
2018-07-14T03:14:42.584Z,6.5
2018-07-14T03:14:59.010Z,6.1
2018-07-14T03:15:15.446Z,6.3
2018-07-14T03:15:31.926Z,6.5
2018-07-14T03:15:48.352Z,6.3
2018-07-14T03:16:04.785Z,6.1
2018-07-14T03:16:21.207Z,6.2
2018-07-14T03:16:37.634Z,6.4
2018-07-14T03:16:54.058Z,6.3
2018-07-14T03:17:10.485Z,6.3
2018-07-14T03:17:26.919Z,6.4
2018-07-14T03:17:43.343Z,6.1
2018-07-14T03:17:59.771Z,6
2018-07-14T03:18:16.200Z,6.1
2018-07-14T03:18:32.628Z,6.3
2018-07-14T03:18:49.053Z,6.1
2018-07-14T03:19:05.479Z,6.2
2018-07-14T03:19:21.976Z,6.3
2018-07-14T03:19:38.329Z,6.3
2018-07-14T03:19:54.755Z,6
2018-07-14T03:20:11.180Z,5.9
2018-07-14T03:20:27.639Z,5.9
2018-07-14T03:20:44.064Z,6.1
2018-07-14T03:21:00.488Z,6.4
2018-07-14T03:21:16.915Z,6.3
2018-07-14T03:21:33.363Z,6.3
2018-07-14T03:21:49.789Z,6.4
2018-07-14T03:22:06.215Z,6.5
2018-07-14T03:22:22.641Z,6.5
2018-07-14T03:22:39.065Z,6.4
2018-07-14T03:22:55.487Z,6.3
2018-07-14T03:23:11.920Z,5.9
2018-07-14T03:23:28.341Z,6.1
2018-07-14T03:23:44.766Z,6.1
2018-07-14T03:24:01.190Z,6.3
2018-07-14T03:24:17.618Z,6.1
2018-07-14T03:24:34.044Z,6
2018-07-14T03:24:50.468Z,6
2018-07-14T03:25:06.895Z,5.9
2018-07-14T03:25:23.322Z,6
2018-07-14T03:25:39.763Z,5.7
2018-07-14T03:25:56.188Z,6.1
2018-07-14T03:26:13.605Z,6.4
2018-07-14T03:26:30.029Z,6.4
2018-07-14T03:26:46.463Z,6.3
2018-07-14T03:27:02.884Z,6.5
2018-07-14T03:27:19.309Z,6.4
2018-07-14T03:27:35.733Z,6.3
2018-07-14T03:27:52.161Z,6.1
2018-07-14T03:28:08.589Z,6
2018-07-14T03:28:25.016Z,6.2
2018-07-14T03:28:41.443Z,6.1
2018-07-14T03:28:58.859Z,6.2
2018-07-14T03:29:15.286Z,6.3
2018-07-14T03:29:31.710Z,6.2
2018-07-14T03:29:48.135Z,6.1
2018-07-14T03:30:04.562Z,6.3
2018-07-14T03:30:20.986Z,6
2018-07-14T03:30:37.436Z,6.1
2018-07-14T03:30:53.856Z,6.4
2018-07-14T03:31:10.285Z,6.4
2018-07-14T03:31:26.710Z,6.2
2018-07-14T03:31:43.135Z,6.2
2018-07-14T03:31:59.565Z,6.4
2018-07-14T03:32:15.985Z,6.4
2018-07-14T03:32:32.415Z,6.7
2018-07-14T03:32:48.838Z,6.5
2018-07-14T03:33:06.259Z,6.3
2018-07-14T03:33:22.681Z,6.2
2018-07-14T03:33:39.107Z,6.2
2018-07-14T03:33:55.531Z,6.3
2018-07-14T03:34:11.957Z,6.1
2018-07-14T03:34:28.382Z,6
2018-07-14T03:34:44.808Z,6.3
2018-07-14T03:35:01.232Z,6.5
2018-07-14T03:35:17.660Z,6.6
2018-07-14T03:35:34.084Z,6.2
2018-07-14T03:35:50.525Z,6.4
2018-07-14T03:36:06.951Z,6.5
2018-07-14T03:36:23.374Z,6.3
2018-07-14T03:36:39.866Z,6.3
2018-07-14T03:36:56.233Z,6.6
2018-07-14T03:37:12.663Z,6.5
2018-07-14T03:37:29.082Z,6.5
2018-07-14T03:37:45.511Z,6.3
2018-07-14T03:38:01.935Z,6
2018-07-14T03:38:18.359Z,6.2
2018-07-14T03:38:34.783Z,6.4
2018-07-14T03:38:51.211Z,6.3
2018-07-14T03:39:07.636Z,6.5
2018-07-14T03:39:24.060Z,6.6
2018-07-14T03:39:40.485Z,6.2
2018-07-14T03:39:56.911Z,6.2
2018-07-14T03:40:13.340Z,6.2
2018-07-14T03:40:29.775Z,6.2
2018-07-14T03:40:46.236Z,6.4
2018-07-14T03:41:02.659Z,6.4
2018-07-14T03:41:19.096Z,6.5
2018-07-14T03:41:35.516Z,6.1
2018-07-14T03:41:51.948Z,5.8
2018-07-14T03:42:08.369Z,6.2
2018-07-14T03:42:24.797Z,6.1
2018-07-14T03:42:41.225Z,6.1
2018-07-14T03:42:57.653Z,6.2
2018-07-14T03:43:14.077Z,6.3
2018-07-14T03:43:30.504Z,6.1
2018-07-14T03:43:46.929Z,5.8
2018-07-14T03:44:03.357Z,5.5
2018-07-14T03:44:19.781Z,5.7
2018-07-14T03:44:36.206Z,6
2018-07-14T03:44:52.630Z,5.8
2018-07-14T03:45:09.056Z,5.7
2018-07-14T03:45:25.480Z,5.9
2018-07-14T03:45:41.905Z,5.9
2018-07-14T03:45:58.350Z,5.9
2018-07-14T03:46:14.780Z,5.7
2018-07-14T03:46:31.214Z,5.5
2018-07-14T03:46:47.640Z,6
2018-07-14T03:47:04.069Z,6.1
2018-07-14T03:47:20.490Z,5.9
2018-07-14T03:47:36.922Z,5.6
2018-07-14T03:47:53.348Z,5.6
2018-07-14T03:48:09.773Z,5.6